Kezdőlap
METAR-TAF:

METAR-TAF

Repülőterek :

Reschen Pass, Olaszország

földrajzi szélesség: 46-50N, földrajzi hosszúság: 010-30E, magasság: 1800 m

Jelenlegi meteorológiai megfigyelések

A jelentés 26 perccel ezelõtt készült, 19:55 UTC
Északi szél 3 kt
Hőmérséklet -3°C
Páratartalom 68%
Légköri nyomás 1021 hPa
Látótávolság: 6000 m
Szórványos felhőzet 3000 lábon

METAR: LIVE 191955Z 01003KT 6000 SCT030 M03/M08 Q1021 RMK SCT VIS MIN 6000

Idő: 21:21 (20:21 UTC)


TAF: hiányzik

Meteorológiai megfigyelések és előrejelzések több, mint 4000 repülőtéren (METAR és TAF jelentéseket).

A térképen piros és sárga pontok jelzik az elérhető meteorológiai állomásokat.

Mozgassa az egeret a pont fölött, hogy megjelenjen az állomás neve.

Azután kattintson az időjárási megfigyelések és előrejelzések megtekintéséhez.

A térkép megváltoztatása: kattintson a fekete keresztel jelölt zöld gombra ráközelítéshez, a vonallal jelölt zöld gombra távolításhoz, vagy a zöld nyilakra a szomszédos térképek eléréséhez.


METAR-TAF: